Time;durP1;ratioP1;P1;durP2;ratioP2;P2;SDS_P1;SDS_P2;PMS_P1;PMS_P2;Temp;Humidity;BMP_temperature;BMP_pressure;BME280_temperature;BME280_humidity;BME280_pressure;Samples;Min_cycle;Max_cycle;Signal;HPM_P1;HPM_P2
2022/03/28 00:01:50;;;;;;;9.68;6.85;;;12.60;99.90;;;;;;5076928;28;20028;-46
2022/03/28 00:04:21;;;;;;;9.25;7.03;;;12.60;99.90;;;;;;5060013;28;20055;-43
2022/03/28 00:06:47;;;;;;;10.52;7.70;;;12.60;99.90;;;;;;5076619;28;20506;-41
2022/03/28 00:09:13;;;;;;;11.02;7.75;;;12.50;99.90;;;;;;5076986;28;20032;-43
2022/03/28 00:11:39;;;;;;;22.00;16.00;;;12.50;99.90;;;;;;5077376;28;20498;-41
2022/03/28 00:14:05;;;;;;;12.88;9.00;;;12.50;99.90;;;;;;5076059;28;20020;-41
2022/03/28 00:16:31;;;;;;;11.68;8.20;;;12.50;99.90;;;;;;5075604;28;20024;-42
2022/03/28 00:18:57;;;;;;;10.20;8.13;;;12.50;99.90;;;;;;5075114;28;20020;-42
2022/03/28 00:21:24;;;;;;;9.43;8.30;;;12.40;99.90;;;;;;5075430;28;20121;-43
2022/03/28 00:23:50;;;;;;;9.32;7.55;;;12.30;99.90;;;;;;5093796;28;20028;-48
2022/03/28 00:26:16;;;;;;;9.00;7.35;;;12.20;99.90;;;;;;5075336;28;20034;-40
2022/03/28 00:28:41;;;;;;;12.98;7.72;;;12.30;99.90;;;;;;5074522;28;20498;-40
2022/03/28 00:31:07;;;;;;;12.75;9.27;;;12.30;99.90;;;;;;5093182;28;20050;-41
2022/03/28 00:33:32;;;;;;;9.02;7.60;;;12.30;99.90;;;;;;5074783;28;20028;-43
2022/03/28 00:35:58;;;;;;;9.35;7.75;;;12.30;99.90;;;;;;5093001;28;20020;-40
2022/03/28 00:38:23;;;;;;;12.98;8.45;;;12.30;99.90;;;;;;5074587;28;20066;-43
2022/03/28 00:40:49;;;;;;;10.10;7.88;;;12.20;99.90;;;;;;5093019;28;20077;-38
2022/03/28 00:43:15;;;;;;;12.45;8.45;;;12.20;99.90;;;;;;5092886;28;20012;-44
2022/03/28 00:45:42;;;;;;;10.23;8.02;;;12.20;99.90;;;;;;5093070;28;20046;-41
2022/03/28 00:48:09;;;;;;;9.73;8.30;;;12.10;99.90;;;;;;5091681;28;20368;-44
2022/03/28 00:50:35;;;;;;;10.90;7.97;;;12.20;99.90;;;;;;5092598;28;20493;-37
2022/03/28 00:53:04;;;;;;;8.95;8.05;;;12.20;99.90;;;;;;5092891;28;20028;-41
2022/03/28 00:55:31;;;;;;;12.65;8.45;;;12.10;99.90;;;;;;5092793;28;20012;-42
2022/03/28 00:57:56;;;;;;;9.02;7.85;;;12.10;99.90;;;;;;5092345;28;20027;-41
2022/03/28 01:00:22;;;;;;;11.30;8.40;;;12.10;99.90;;;;;;5093999;28;20474;-43
2022/03/28 01:02:48;;;;;;;9.52;7.82;;;12.10;99.90;;;;;;5094015;28;20028;-42
2022/03/28 01:05:14;;;;;;;10.52;7.90;;;12.00;99.90;;;;;;5093182;28;20039;-43
2022/03/28 01:07:41;;;;;;;9.98;7.20;;;12.00;99.90;;;;;;5092386;28;20024;-45
2022/03/28 01:10:10;;;;;;;9.50;7.88;;;11.90;99.90;;;;;;5092368;28;20032;-44
2022/03/28 01:12:36;;;;;;;10.80;8.20;;;12.00;99.90;;;;;;5092268;28;20030;-37
2022/03/28 01:15:03;;;;;;;12.18;8.85;;;12.00;99.90;;;;;;5092538;28;20030;-41
2022/03/28 01:20:13;;;;;;;11.43;8.25;;;12.10;99.90;;;;;;5092295;28;20556;-46
2022/03/28 01:22:38;;;;;;;10.35;8.13;;;12.00;99.90;;;;;;5092201;28;20031;-41
2022/03/28 01:25:06;;;;;;;13.38;8.75;;;12.00;99.90;;;;;;5092080;28;20082;-38
2022/03/28 01:27:33;;;;;;;9.50;8.25;;;12.00;99.90;;;;;;5091914;28;20028;-41
2022/03/28 01:29:58;;;;;;;9.75;7.90;;;12.00;99.90;;;;;;5091894;28;20066;-42
2022/03/28 01:32:24;;;;;;;9.50;8.00;;;11.90;99.90;;;;;;5091982;28;20372;-40
2022/03/28 01:34:50;;;;;;;9.68;8.68;;;11.90;99.90;;;;;;5092124;28;20475;-37
2022/03/28 01:37:16;;;;;;;11.23;8.13;;;11.90;99.90;;;;;;5091617;28;20095;-42
2022/03/28 01:39:41;;;;;;;9.18;8.18;;;11.80;99.90;;;;;;5091771;28;20456;-42
2022/03/28 01:42:07;;;;;;;9.18;8.25;;;11.90;99.90;;;;;;5091960;28;20028;-42
2022/03/28 01:44:33;;;;;;;12.75;7.93;;;11.90;99.90;;;;;;5091758;28;20032;-37
2022/03/28 01:46:58;;;;;;;11.73;8.20;;;11.80;99.90;;;;;;5091500;28;20028;-39
2022/03/28 01:49:24;;;;;;;9.63;7.88;;;11.80;99.90;;;;;;5091658;28;20031;-41
2022/03/28 01:51:50;;;;;;;12.30;7.70;;;11.70;99.90;;;;;;5091554;28;20479;-43
2022/03/28 01:54:17;;;;;;;13.10;8.80;;;11.70;99.90;;;;;;5091858;28;20028;-37
2022/03/28 01:56:43;;;;;;;9.35;8.25;;;11.60;99.90;;;;;;5091580;28;20016;-43
2022/03/28 01:59:09;;;;;;;10.88;8.50;;;11.60;99.90;;;;;;5091175;28;20020;-41
2022/03/28 02:01:35;;;;;;;9.73;8.63;;;11.70;99.90;;;;;;5091733;28;20115;-38
2022/03/28 02:04:01;;;;;;;10.70;8.20;;;11.70;99.90;;;;;;5073982;28;20031;-46
2022/03/28 02:06:27;;;;;;;11.48;9.10;;;11.70;99.90;;;;;;5091459;28;20502;-40
2022/03/28 02:08:53;;;;;;;10.18;8.70;;;11.60;99.90;;;;;;5072721;28;20499;-43
2022/03/28 02:11:19;;;;;;;13.95;9.52;;;11.60;99.90;;;;;;5073134;28;20028;-42
2022/03/28 02:13:45;;;;;;;10.32;8.25;;;11.60;99.90;;;;;;5091530;28;20030;-41
2022/03/28 02:16:11;;;;;;;11.30;9.05;;;11.50;99.90;;;;;;5091398;28;20050;-41
2022/03/28 02:18:38;;;;;;;13.15;9.55;;;11.50;99.90;;;;;;5073038;28;20031;-40
2022/03/28 02:21:04;;;;;;;9.95;8.30;;;11.40;99.90;;;;;;5091318;28;20027;-47
2022/03/28 02:23:29;;;;;;;10.88;9.45;;;11.40;99.90;;;;;;5091510;28;20024;-45
2022/03/28 02:25:55;;;;;;;10.43;9.30;;;11.30;99.90;;;;;;5091209;28;20111;-42
2022/03/28 02:28:21;;;;;;;9.68;8.77;;;11.30;99.90;;;;;;5091232;28;20547;-40
2022/03/28 02:30:46;;;;;;;11.73;8.77;;;11.20;99.90;;;;;;5123961;22;20047;-41
2022/03/28 02:33:11;;;;;;;11.32;9.55;;;11.10;99.90;;;;;;5111933;28;20145;-44
2022/03/28 02:35:37;;;;;;;11.77;9.23;;;11.10;99.90;;;;;;5093362;28;20024;-44
2022/03/28 02:38:03;;;;;;;13.25;8.77;;;11.00;99.90;;;;;;5111419;28;20470;-43
2022/03/28 02:40:29;;;;;;;11.73;9.60;;;10.90;99.90;;;;;;5111518;28;20020;-45
2022/03/28 02:42:57;;;;;;;11.88;9.93;;;11.00;99.90;;;;;;5111714;28;20054;-42
2022/03/28 02:45:23;;;;;;;10.73;8.65;;;11.00;99.90;;;;;;5111858;28;20310;-42
2022/03/28 02:47:48;;;;;;;12.68;9.00;;;11.00;99.90;;;;;;5112440;28;20027;-44
2022/03/28 02:50:14;;;;;;;11.77;9.35;;;11.00;99.90;;;;;;5112458;28;20433;-41
2022/03/28 02:52:40;;;;;;;10.60;8.20;;;11.00;99.90;;;;;;5111508;28;20538;-40
2022/03/28 02:55:06;;;;;;;12.45;8.90;;;10.90;99.90;;;;;;5111392;28;20034;-41
2022/03/28 02:57:31;;;;;;;12.23;9.45;;;11.00;99.90;;;;;;5111221;28;20054;-41
2022/03/28 02:59:57;;;;;;;11.18;8.88;;;10.90;99.90;;;;;;5111543;28;20023;-41
2022/03/28 03:02:22;;;;;;;13.77;9.18;;;10.90;99.90;;;;;;5111544;28;20024;-41
2022/03/28 03:04:48;;;;;;;16.42;8.77;;;10.80;99.90;;;;;;5093365;28;20382;-41
2022/03/28 03:07:13;;;;;;;11.80;9.48;;;10.70;99.90;;;;;;5110987;28;20043;-40
2022/03/28 03:09:39;;;;;;;14.82;10.45;;;10.60;99.90;;;;;;5111099;28;20066;-39
2022/03/28 03:12:05;;;;;;;11.32;9.30;;;10.70;99.90;;;;;;5113959;28;20502;-43
2022/03/28 03:14:30;;;;;;;10.85;9.02;;;10.60;99.90;;;;;;5115171;28;20020;-40
2022/03/28 03:16:56;;;;;;;14.00;9.70;;;10.50;99.90;;;;;;5114822;28;20046;-46
2022/03/28 03:19:21;;;;;;;16.80;9.05;;;10.50;99.90;;;;;;5096636;28;20031;-40
2022/03/28 03:21:47;;;;;;;13.48;9.43;;;10.50;99.90;;;;;;5114751;28;20491;-41
2022/03/28 03:24:13;;;;;;;11.55;9.55;;;10.40;99.90;;;;;;5115334;28;20031;-43
2022/03/28 03:26:38;;;;;;;11.55;9.73;;;10.30;99.90;;;;;;5114474;28;20031;-41
2022/03/28 03:29:03;;;;;;;14.60;9.88;;;10.30;99.90;;;;;;5114697;28;20027;-40
2022/03/28 03:31:29;;;;;;;12.75;9.73;;;10.40;99.90;;;;;;5114640;28;20077;-40
2022/03/28 03:33:55;;;;;;;12.32;10.75;;;10.40;99.90;;;;;;5114685;28;20020;-45
2022/03/28 03:36:20;;;;;;;13.18;10.02;;;10.30;99.90;;;;;;5114493;28;20047;-43
2022/03/28 03:38:46;;;;;;;12.52;10.32;;;10.20;99.90;;;;;;5114404;28;20016;-43
2022/03/28 03:41:12;;;;;;;11.80;10.20;;;10.10;99.90;;;;;;5096250;28;20020;-40
2022/03/28 03:43:37;;;;;;;12.23;9.75;;;10.10;99.90;;;;;;5114471;28;20092;-41
2022/03/28 03:46:03;;;;;;;11.88;10.68;;;10.00;99.90;;;;;;5114374;28;20028;-43
2022/03/28 03:48:29;;;;;;;11.98;9.70;;;10.00;99.90;;;;;;5114997;28;20024;-43
2022/03/28 03:50:55;;;;;;;13.88;10.80;;;9.90;99.90;;;;;;5114426;28;20023;-43
2022/03/28 03:53:21;;;;;;;15.88;11.18;;;9.80;99.90;;;;;;5114429;28;20486;-41
2022/03/28 03:55:48;;;;;;;13.52;11.15;;;9.80;99.90;;;;;;5095844;28;20016;-41
2022/03/28 03:58:13;;;;;;;13.13;10.80;;;9.90;99.90;;;;;;5095642;28;20020;-44
2022/03/28 04:00:42;;;;;;;16.23;11.82;;;9.90;99.90;;;;;;5096041;28;20034;-42
2022/03/28 04:03:08;;;;;;;12.10;9.77;;;9.80;99.90;;;;;;5096062;28;20102;-43
2022/03/28 04:05:37;;;;;;;13.10;11.02;;;9.80;99.90;;;;;;5114071;28;20510;-40
2022/03/28 04:08:06;;;;;;;17.88;11.15;;;9.70;99.90;;;;;;5113714;28;20016;-40
2022/03/28 04:10:32;;;;;;;16.38;10.75;;;9.70;99.90;;;;;;5113880;28;20027;-43
2022/03/28 04:12:58;;;;;;;14.98;11.95;;;9.60;99.90;;;;;;5113930;28;20448;-40
2022/03/28 04:15:23;;;;;;;15.50;12.13;;;9.60;99.90;;;;;;5113983;28;20023;-38
2022/03/28 04:17:49;;;;;;;14.38;11.70;;;9.60;99.90;;;;;;5113773;28;20065;-42
2022/03/28 04:20:16;;;;;;;16.52;12.25;;;9.60;99.90;;;;;;5113761;28;20400;-41
2022/03/28 04:22:45;;;;;;;14.48;11.35;;;9.70;99.90;;;;;;5113460;28;20040;-41
2022/03/28 04:25:13;;;;;;;14.70;11.00;;;9.70;99.90;;;;;;5113936;28;20066;-43
2022/03/28 04:27:38;;;;;;;14.38;12.27;;;9.70;99.90;;;;;;5113229;28;20030;-43
2022/03/28 04:30:06;;;;;;;12.32;10.38;;;9.70;99.90;;;;;;5113397;28;20447;-41
2022/03/28 04:32:31;;;;;;;14.05;11.98;;;9.60;99.90;;;;;;5095155;28;20478;-41
2022/03/28 04:34:57;;;;;;;15.13;11.20;;;9.60;99.90;;;;;;5113546;28;20149;-41
2022/03/28 04:37:23;;;;;;;14.38;11.45;;;9.50;99.90;;;;;;5094702;28;20060;-42
2022/03/28 04:39:49;;;;;;;12.65;11.13;;;9.50;99.90;;;;;;5113385;28;20102;-42
2022/03/28 04:42:14;;;;;;;12.32;9.98;;;9.50;99.90;;;;;;5113796;28;20088;-43
2022/03/28 04:44:40;;;;;;;14.07;10.63;;;9.40;99.90;;;;;;5113301;28;20036;-43
2022/03/28 04:47:06;;;;;;;13.52;11.82;;;9.50;99.90;;;;;;5112854;28;20019;-41
2022/03/28 04:49:31;;;;;;;12.38;10.88;;;9.50;99.90;;;;;;5113058;28;20023;-41
2022/03/28 04:51:57;;;;;;;14.68;11.10;;;9.50;99.90;;;;;;5113014;28;20414;-41
2022/03/28 04:54:23;;;;;;;13.60;10.88;;;9.50;99.90;;;;;;5113200;28;20023;-42
2022/03/28 04:56:49;;;;;;;16.63;11.68;;;9.60;99.90;;;;;;5112826;28;20042;-42
2022/03/28 04:59:14;;;;;;;15.52;11.73;;;9.60;99.90;;;;;;5094824;28;20019;-40
2022/03/28 05:01:40;;;;;;;14.70;11.23;;;9.50;99.90;;;;;;5112860;28;20085;-41
2022/03/28 05:04:05;;;;;;;15.88;10.75;;;9.60;99.90;;;;;;5113333;28;20026;-44
2022/03/28 05:06:31;;;;;;;16.70;11.75;;;9.60;99.90;;;;;;5112813;28;20080;-41
2022/03/28 05:08:56;;;;;;;16.73;11.85;;;9.50;99.90;;;;;;5094494;28;20019;-47
2022/03/28 05:11:22;;;;;;;18.90;12.18;;;9.50;99.90;;;;;;5112656;28;20107;-45
2022/03/28 05:13:51;;;;;;;19.27;12.95;;;9.50;99.90;;;;;;5112827;28;20107;-41
2022/03/28 05:16:17;;;;;;;16.15;12.02;;;9.50;99.90;;;;;;5112684;28;20421;-45
2022/03/28 05:18:43;;;;;;;15.52;11.38;;;9.40;99.90;;;;;;5112420;28;20026;-43
2022/03/28 05:21:08;;;;;;;19.55;11.70;;;9.30;99.90;;;;;;5112625;28;20062;-43
2022/03/28 05:23:34;;;;;;;14.43;11.55;;;9.30;99.90;;;;;;5112563;28;20031;-43
2022/03/28 05:26:00;;;;;;;16.80;12.25;;;9.30;99.90;;;;;;5112525;28;20031;-46
2022/03/28 05:28:25;;;;;;;15.18;11.75;;;9.30;99.90;;;;;;5112141;28;20398;-41
2022/03/28 05:30:52;;;;;;;13.35;11.18;;;9.30;99.90;;;;;;5112465;28;20085;-42
2022/03/28 05:33:17;;;;;;;18.90;11.57;;;9.40;99.90;;;;;;5111906;28;20107;-44
2022/03/28 05:35:44;;;;;;;16.45;11.30;;;9.40;99.90;;;;;;5112439;28;20489;-42
2022/03/28 05:38:10;;;;;;;15.00;11.05;;;9.40;99.90;;;;;;5112008;28;20020;-42
2022/03/28 05:40:37;;;;;;;15.73;11.80;;;9.40;99.90;;;;;;5112221;28;20024;-40
2022/03/28 05:43:03;;;;;;;17.05;11.55;;;9.60;99.90;;;;;;5112390;28;20023;-44
2022/03/28 05:45:29;;;;;;;19.27;11.60;;;9.70;99.90;;;;;;5112939;28;20045;-42
2022/03/28 05:47:55;;;;;;;20.48;12.48;;;9.80;99.90;;;;;;5114094;28;20019;-41
2022/03/28 05:50:20;;;;;;;16.92;11.70;;;9.80;99.90;;;;;;5114275;28;20023;-42
2022/03/28 05:52:46;;;;;;;13.07;10.20;;;9.90;99.90;;;;;;5114070;28;20032;-42
2022/03/28 05:55:11;;;;;;;13.05;10.10;;;10.00;99.90;;;;;;5114125;28;20065;-42
2022/03/28 05:57:37;;;;;;;15.32;11.43;;;10.10;99.90;;;;;;5113067;28;20034;-42
2022/03/28 06:00:05;;;;;;;22.92;12.13;;;10.40;99.90;;;;;;5112288;28;20020;-41
2022/03/28 06:02:31;;;;;;;13.45;10.40;;;10.50;99.90;;;;;;5112269;28;20505;-43
2022/03/28 06:04:57;;;;;;;16.92;10.82;;;10.80;99.90;;;;;;5093777;28;20440;-44
2022/03/28 06:07:22;;;;;;;14.18;10.00;;;10.90;99.90;;;;;;5111720;28;20031;-42
2022/03/28 06:09:48;;;;;;;15.93;10.45;;;11.10;99.90;;;;;;5111618;28;20031;-42
2022/03/28 06:12:15;;;;;;;13.68;11.75;;;11.20;99.90;;;;;;5112109;28;20058;-46
2022/03/28 06:14:40;;;;;;;17.77;11.73;;;11.40;99.90;;;;;;5093782;28;20111;-45
2022/03/28 06:17:06;;;;;;;15.05;10.55;;;11.30;99.90;;;;;;5111743;28;20107;-43
2022/03/28 06:19:32;;;;;;;18.40;12.88;;;11.40;99.90;;;;;;5111923;28;20020;-45
2022/03/28 06:21:57;;;;;;;13.00;10.90;;;11.70;99.90;;;;;;5112372;28;20031;-45
2022/03/28 06:24:23;;;;;;;17.45;10.63;;;11.90;99.90;;;;;;5111936;28;20511;-42
2022/03/28 06:26:48;;;;;;;18.60;11.60;;;12.10;99.90;;;;;;5111683;28;20033;-43
2022/03/28 06:29:14;;;;;;;15.98;12.45;;;12.20;99.90;;;;;;5111768;28;20023;-43
2022/03/28 06:31:39;;;;;;;14.30;11.25;;;12.10;99.90;;;;;;5112266;28;20034;-43
2022/03/28 06:34:05;;;;;;;14.45;11.18;;;12.20;99.90;;;;;;5112586;28;20034;-42
2022/03/28 06:36:31;;;;;;;16.50;10.77;;;12.40;99.90;;;;;;5112381;28;20016;-42
2022/03/28 06:38:57;;;;;;;16.30;11.38;;;12.70;99.90;;;;;;5111646;28;20038;-41
2022/03/28 06:41:23;;;;;;;12.23;9.52;;;13.20;99.90;;;;;;5111540;28;20424;-43
2022/03/28 06:43:48;;;;;;;14.38;10.70;;;13.60;99.90;;;;;;5111815;28;20030;-44
2022/03/28 06:46:14;;;;;;;16.38;10.18;;;13.90;99.90;;;;;;5113251;28;20024;-43
2022/03/28 06:48:40;;;;;;;14.77;10.93;;;14.10;99.90;;;;;;5115202;28;20023;-44
2022/03/28 06:51:06;;;;;;;15.95;10.95;;;14.10;99.90;;;;;;5115457;28;20056;-43
2022/03/28 06:53:32;;;;;;;13.18;10.30;;;14.30;99.90;;;;;;5115449;28;20023;-43
2022/03/28 06:55:58;;;;;;;12.52;10.55;;;14.60;99.90;;;;;;5115451;28;20077;-43
2022/03/28 06:58:24;;;;;;;11.50;10.13;;;14.90;99.80;;;;;;5115352;28;20035;-42
2022/03/28 07:00:50;;;;;;;15.18;10.77;;;15.20;99.10;;;;;;5115426;28;20420;-42
2022/03/28 07:03:16;;;;;;;12.95;10.88;;;15.60;98.60;;;;;;5096974;28;20130;-44
2022/03/28 07:05:42;;;;;;;11.93;9.73;;;16.10;97.50;;;;;;5115296;28;20149;-43
2022/03/28 07:08:08;;;;;;;12.68;10.73;;;16.50;96.30;;;;;;5114520;28;20059;-44
2022/03/28 07:10:34;;;;;;;13.98;11.48;;;16.60;96.30;;;;;;5115147;28;20509;-42
2022/03/28 07:12:59;;;;;;;13.00;10.20;;;17.00;95.90;;;;;;5114861;28;20027;-40
2022/03/28 07:15:27;;;;;;;11.93;10.07;;;17.30;95.10;;;;;;5115295;28;20057;-43
2022/03/28 07:17:56;;;;;;;16.98;9.45;;;17.40;93.90;;;;;;5114693;28;20016;-42
2022/03/28 07:20:23;;;;;;;13.73;10.07;;;17.90;93.50;;;;;;5114729;28;20023;-40
2022/03/28 07:22:50;;;;;;;15.35;10.82;;;17.80;93.30;;;;;;5114950;28;20385;-39
2022/03/28 07:25:15;;;;;;;15.88;11.15;;;17.80;92.70;;;;;;5114971;28;20032;-43
2022/03/28 07:27:41;;;;;;;10.50;9.40;;;18.20;92.30;;;;;;5096424;28;20038;-43
2022/03/28 07:30:08;;;;;;;13.23;10.52;;;18.30;91.80;;;;;;5114743;28;20062;-43
2022/03/28 07:32:34;;;;;;;13.70;10.90;;;18.40;92.10;;;;;;5114466;28;20126;-41
2022/03/28 07:35:00;;;;;;;12.70;10.60;;;18.50;91.30;;;;;;5115057;28;20073;-43
2022/03/28 07:37:26;;;;;;;14.00;10.35;;;19.00;91.00;;;;;;5114313;28;20032;-44
2022/03/28 07:39:52;;;;;;;11.50;9.77;;;19.30;90.90;;;;;;5114645;28;20433;-42
2022/03/28 07:42:18;;;;;;;12.40;10.30;;;19.60;90.30;;;;;;5114612;28;20027;-42
2022/03/28 07:44:44;;;;;;;15.48;10.30;;;19.90;89.20;;;;;;5114293;28;20019;-42
2022/03/28 07:47:10;;;;;;;12.30;10.23;;;20.10;87.80;;;;;;5114129;28;20034;-44
2022/03/28 07:49:37;;;;;;;14.38;10.75;;;20.50;87.50;;;;;;5114203;28;20023;-41
2022/03/28 07:52:04;;;;;;;17.50;9.35;;;20.80;84.80;;;;;;5096090;28;20081;-43
2022/03/28 07:54:30;;;;;;;11.02;9.20;;;20.80;84.90;;;;;;5114104;28;20034;-42
2022/03/28 07:56:55;;;;;;;12.75;9.27;;;21.20;83.60;;;;;;5113577;28;20446;-45
2022/03/28 07:59:23;;;;;;;9.45;8.50;;;21.60;81.20;;;;;;5114132;28;20099;-43
2022/03/28 08:01:49;;;;;;;11.00;9.75;;;21.80;80.60;;;;;;5114048;28;20024;-42
2022/03/28 08:04:15;;;;;;;10.75;8.93;;;22.40;80.10;;;;;;5113952;28;20019;-42
2022/03/28 08:06:40;;;;;;;15.90;8.93;;;22.70;77.20;;;;;;5113747;28;20012;-43
2022/03/28 08:09:06;;;;;;;20.73;10.38;;;22.60;77.10;;;;;;5113348;28;20435;-43
2022/03/28 08:11:31;;;;;;;13.57;10.18;;;22.40;77.80;;;;;;5113896;28;20038;-42
2022/03/28 08:13:57;;;;;;;17.95;9.73;;;22.70;76.10;;;;;;5114031;28;20116;-45
2022/03/28 08:16:22;;;;;;;19.00;10.40;;;22.90;75.60;;;;;;5113586;28;20028;-44
2022/03/28 08:18:48;;;;;;;15.35;9.95;;;22.80;75.30;;;;;;5113565;28;20026;-47
2022/03/28 08:21:13;;;;;;;14.43;8.65;;;23.00;74.00;;;;;;5114105;28;20035;-42
2022/03/28 08:23:39;;;;;;;17.52;9.50;;;22.80;74.30;;;;;;5113538;28;20034;-41
2022/03/28 08:26:05;;;;;;;12.57;9.55;;;22.00;75.20;;;;;;5113895;28;20024;-44
2022/03/28 08:28:31;;;;;;;10.40;9.10;;;20.80;78.40;;;;;;5113351;28;20024;-42
2022/03/28 08:30:57;;;;;;;12.70;10.52;;;19.80;81.00;;;;;;5126672;22;20495;-48
2022/03/28 08:33:23;;;;;;;17.10;10.23;;;19.10;83.80;;;;;;5094876;28;20119;-48
2022/03/28 08:35:48;;;;;;;12.48;10.65;;;18.40;86.40;;;;;;5095291;28;20368;-40
2022/03/28 08:38:15;;;;;;;21.30;10.68;;;17.70;88.70;;;;;;5075951;28;20028;-48
2022/03/28 08:40:44;;;;;;;12.60;10.02;;;17.20;90.30;;;;;;5095043;28;20073;-45
2022/03/28 08:43:09;;;;;;;11.73;10.52;;;16.80;91.10;;;;;;5095337;28;20130;-46
2022/03/28 08:45:38;;;;;;;20.88;11.43;;;16.40;92.20;;;;;;5095094;28;20060;-42
2022/03/28 08:48:05;;;;;;;16.90;12.15;;;16.20;92.80;;;;;;5094413;28;20395;-44
2022/03/28 08:50:32;;;;;;;16.08;11.27;;;15.80;94.30;;;;;;5095091;28;20024;-39
2022/03/28 08:52:58;;;;;;;15.70;12.07;;;15.70;95.30;;;;;;5095067;28;20038;-49
2022/03/28 08:55:24;;;;;;;21.85;11.23;;;16.50;94.80;;;;;;5094325;28;20020;-45
2022/03/28 08:57:50;;;;;;;17.08;11.13;;;17.60;93.30;;;;;;5094566;28;20031;-44
2022/03/28 09:00:16;;;;;;;22.88;11.32;;;19.30;91.60;;;;;;5094810;28;20171;-43
2022/03/28 09:02:47;;;;;;;21.35;10.88;;;20.50;87.80;;;;;;5076453;28;20020;-43
2022/03/28 09:05:14;;;;;;;15.85;9.25;;;21.50;83.80;;;;;;5095032;28;20111;-44
2022/03/28 09:07:42;;;;;;;12.88;9.82;;;22.10;81.60;;;;;;5093365;28;20054;-44
2022/03/28 09:10:13;;;;;;;18.25;9.95;;;23.00;79.50;;;;;;5092524;28;20046;-42
2022/03/28 09:12:59;;;;;;;14.70;9.93;;;23.60;76.80;;;;;;5093849;28;20032;-46
2022/03/28 09:15:24;;;;;;;;;;;24.50;74.10;;;;;;5093744;28;20048;-44
2022/03/28 09:17:57;;;;;;;12.02;8.75;;;24.80;72.40;;;;;;5093277;28;19904;-43
2022/03/28 09:20:23;;;;;;;12.43;8.60;;;25.20;71.80;;;;;;5092881;28;20024;-41
2022/03/28 09:22:49;;;;;;;16.40;8.95;;;25.60;70.30;;;;;;5093432;28;20368;-46
2022/03/28 09:25:19;;;;;;;12.35;9.20;;;25.60;69.10;;;;;;5093076;28;20466;-46
2022/03/28 09:27:45;;;;;;;16.70;9.90;;;25.90;67.70;;;;;;5093019;28;20028;-45
2022/03/28 09:30:12;;;;;;;11.55;9.40;;;25.20;67.70;;;;;;5093348;28;20352;-44
2022/03/28 09:32:40;;;;;;;12.60;9.85;;;25.20;67.90;;;;;;5093499;28;20024;-40
2022/03/28 09:35:19;;;;;;;12.48;10.38;;;24.60;69.10;;;;;;5093659;28;20510;-41
2022/03/28 09:38:01;;;;;;;14.68;11.20;;;24.00;70.50;;;;;;5093483;28;20027;-44
2022/03/28 09:40:36;;;;;;;14.27;11.95;;;23.40;71.80;;;;;;5093948;28;20012;-44
2022/03/28 09:43:24;;;;;;;16.65;11.95;;;22.80;72.70;;;;;;5094225;28;20057;-40
2022/03/28 09:45:53;;;;;;;15.68;12.18;;;22.00;74.30;;;;;;5075601;28;20264;-41
2022/03/28 09:48:19;;;;;;;19.35;12.25;;;21.40;76.70;;;;;;5093844;28;20024;-44
2022/03/28 09:50:48;;;;;;;16.83;12.32;;;21.00;77.90;;;;;;5094323;28;20027;-46
2022/03/28 09:53:18;;;;;;;15.73;11.80;;;20.40;80.10;;;;;;5094194;28;20616;-44
2022/03/28 09:55:52;;;;;;;14.75;11.18;;;20.20;81.20;;;;;;5094223;28;20042;-43
2022/03/28 09:58:38;;;;;;;18.02;12.43;;;20.40;81.50;;;;;;5093441;28;20016;-43
2022/03/28 10:01:17;;;;;;;20.35;12.68;;;20.70;80.60;;;;;;5093569;28;20107;-49
2022/03/28 10:03:45;;;;;;;14.93;12.95;;;21.00;79.60;;;;;;5093686;28;20016;-44
2022/03/28 10:06:11;;;;;;;12.55;11.25;;;20.90;80.30;;;;;;5093362;28;20047;-44
2022/03/28 10:08:37;;;;;;;14.52;12.13;;;20.90;81.40;;;;;;5074329;28;20503;-41
2022/03/28 10:11:03;;;;;;;16.05;11.98;;;21.10;80.70;;;;;;5092584;28;20021;-43
2022/03/28 10:13:30;;;;;;;13.52;11.35;;;21.30;79.80;;;;;;5093099;28;20486;-45
2022/03/28 10:16:00;;;;;;;19.10;11.43;;;21.20;79.60;;;;;;5092893;28;20447;-42
2022/03/28 10:18:29;;;;;;;14.23;11.32;;;21.10;79.70;;;;;;5092771;28;20025;-47
2022/03/28 10:20:57;;;;;;;16.25;12.07;;;20.80;80.50;;;;;;5096367;28;20054;-46
2022/03/28 10:23:28;;;;;;;14.82;12.02;;;20.80;81.00;;;;;;5097593;28;20104;-44
2022/03/28 10:25:56;;;;;;;12.95;11.13;;;20.90;81.00;;;;;;5097586;28;20020;-45
2022/03/28 10:28:22;;;;;;;20.70;11.75;;;20.80;81.90;;;;;;5097379;28;20020;-48
2022/03/28 10:30:48;;;;;;;13.75;12.27;;;20.70;82.40;;;;;;5096958;28;20630;-42
2022/03/28 10:33:16;;;;;;;20.42;12.85;;;20.50;82.70;;;;;;5097851;28;20085;-44
2022/03/28 10:35:57;;;;;;;15.13;12.65;;;20.40;83.40;;;;;;5098457;28;20031;-45
2022/03/28 10:38:24;;;;;;;13.13;11.45;;;20.20;83.20;;;;;;5100295;28;20020;-44
2022/03/28 10:40:55;;;;;;;14.43;12.05;;;20.00;83.70;;;;;;5081491;28;20023;-43
2022/03/28 10:43:25;;;;;;;16.33;12.40;;;19.80;84.50;;;;;;5098231;28;20020;-44
2022/03/28 10:46:07;;;;;;;14.95;12.25;;;19.70;86.20;;;;;;5079611;28;20053;-46
2022/03/28 10:48:37;;;;;;;19.95;12.80;;;19.60;86.70;;;;;;5097650;28;20387;-47
2022/03/28 10:51:13;;;;;;;13.93;12.43;;;19.50;87.10;;;;;;5097029;28;20081;-46
2022/03/28 10:53:47;;;;;;;15.38;12.20;;;19.30;87.20;;;;;;5097206;28;20394;-45
2022/03/28 10:56:32;;;;;;;17.17;12.67;;;19.30;87.90;;;;;;5097217;28;20264;-49
2022/03/28 10:59:11;;;;;;;15.23;13.00;;;19.40;88.40;;;;;;5096769;28;20020;-45
2022/03/28 11:01:37;;;;;;;16.55;11.82;;;19.50;87.90;;;;;;5096841;28;20403;-45
2022/03/28 11:04:16;;;;;;;14.93;12.15;;;19.40;88.80;;;;;;5096821;28;20024;-45
2022/03/28 11:07:05;;;;;;;14.93;12.85;;;19.50;88.70;;;;;;5096795;28;20027;-43
2022/03/28 11:09:35;;;;;;;17.63;13.85;;;19.50;86.90;;;;;;5095725;28;20016;-43
2022/03/28 11:12:04;;;;;;;17.30;12.90;;;19.40;87.20;;;;;;5096313;28;20031;-40
2022/03/28 11:14:49;;;;;;;18.50;13.80;;;19.30;87.90;;;;;;5096430;28;20026;-44
2022/03/28 11:17:35;;;;;;;14.52;12.70;;;19.30;89.80;;;;;;5095925;28;20439;-45
2022/03/28 11:20:20;;;;;;;;;;;19.30;88.80;;;;;;5096977;28;20038;-43
2022/03/28 11:22:51;;;;;;;16.73;13.55;;;19.30;87.80;;;;;;5096718;28;19904;-45
2022/03/28 11:25:32;;;;;;;16.83;12.95;;;19.30;90.20;;;;;;5096063;28;20039;-43
2022/03/28 11:28:15;;;;;;;18.05;12.32;;;19.30;87.80;;;;;;5095721;28;20024;-43
2022/03/28 11:30:49;;;;;;;16.50;12.00;;;19.30;87.60;;;;;;5095753;28;20077;-39
2022/03/28 11:33:27;;;;;;;15.85;13.05;;;19.40;87.90;;;;;;5095560;28;20020;-41
2022/03/28 11:36:02;;;;;;;13.93;12.15;;;19.40;86.40;;;;;;5096060;28;20095;-40
2022/03/28 11:38:30;;;;;;;18.83;13.73;;;19.40;87.00;;;;;;5077941;28;20475;-45
2022/03/28 11:40:57;;;;;;;17.48;12.18;;;19.30;87.00;;;;;;5095499;28;20577;-44
2022/03/28 11:43:29;;;;;;;17.67;13.48;;;19.40;87.20;;;;;;5096261;28;20154;-43
2022/03/28 11:45:55;;;;;;;14.35;12.80;;;19.30;87.50;;;;;;5096050;28;20024;-43
2022/03/28 11:48:21;;;;;;;18.13;12.88;;;19.30;89.00;;;;;;5096644;28;20042;-45
2022/03/28 11:50:47;;;;;;;17.70;11.18;;;19.30;87.40;;;;;;5096186;28;20031;-47
2022/03/28 11:53:18;;;;;;;18.60;11.13;;;19.50;87.70;;;;;;5096281;28;20420;-45
2022/03/28 11:55:49;;;;;;;18.27;12.68;;;19.50;84.20;;;;;;5077764;28;20032;-39
2022/03/28 11:58:16;;;;;;;12.70;10.20;;;19.70;80.50;;;;;;5096314;28;20394;-43
2022/03/28 12:00:48;;;;;;;12.20;9.45;;;19.60;80.70;;;;;;5095264;28;20471;-39
2022/03/28 12:03:15;;;;;;;12.50;9.73;;;19.60;79.60;;;;;;5095417;28;20068;-43
2022/03/28 12:05:46;;;;;;;13.85;9.05;;;19.60;80.10;;;;;;5095680;28;20507;-40
2022/03/28 12:08:17;;;;;;;15.85;11.35;;;19.50;76.10;;;;;;5094742;28;20027;-41
2022/03/28 12:10:50;;;;;;;13.65;9.68;;;19.60;78.70;;;;;;5095569;28;20390;-44
2022/03/28 12:13:17;;;;;;;14.02;9.90;;;19.60;78.80;;;;;;5095617;28;20024;-43
2022/03/28 12:15:48;;;;;;;12.52;9.88;;;19.50;79.10;;;;;;5095940;28;20547;-41
2022/03/28 12:18:16;;;;;;;15.40;10.00;;;19.60;79.10;;;;;;5077546;28;20084;-46
2022/03/28 12:20:44;;;;;;;12.40;9.85;;;19.70;79.20;;;;;;5095613;28;20035;-41
2022/03/28 12:23:12;;;;;;;12.98;9.10;;;19.80;78.40;;;;;;5077300;28;20035;-46
2022/03/28 12:25:43;;;;;;;17.25;9.30;;;19.80;73.60;;;;;;5096046;28;20028;-46
2022/03/28 12:28:12;;;;;;;15.80;8.80;;;19.80;74.90;;;;;;5094972;28;20488;-44
2022/03/28 12:30:40;;;;;;;12.10;9.00;;;19.80;74.60;;;;;;5095945;28;20075;-45
2022/03/28 12:33:22;;;;;;;15.60;8.45;;;19.90;74.80;;;;;;5094919;28;20046;-46
2022/03/28 12:35:53;;;;;;;12.50;9.77;;;19.90;72.50;;;;;;5094704;28;20030;-46
2022/03/28 12:38:22;;;;;;;15.48;10.68;;;20.00;72.60;;;;;;5094562;28;20112;-43